Time;durP1;ratioP1;P1;durP2;ratioP2;P2;SDS_P1;SDS_P2;PMS_P1;PMS_P2;Temp;Humidity;BMP_temperature;BMP_pressure;BME280_temperature;BME280_humidity;BME280_pressure;Samples;Min_cycle;Max_cycle;Signal;HPM_P1;HPM_P2
2022/09/09 00:01:24;;;;;;;;;;;13.90;99.90;;;;;;5069658;28;19920;-75
2022/09/09 00:03:53;;;;;;;;;;;13.90;99.90;;;;;;5082615;28;19920;-75
2022/09/09 00:06:30;;;;;;;;;;;14.00;99.90;;;;;;5090256;28;20003;-75
2022/09/09 00:09:16;;;;;;;;;;;13.90;99.90;;;;;;5041221;28;19963;-75
2022/09/09 00:12:01;;;;;;;;;;;14.00;99.90;;;;;;5044347;28;19921;-75
2022/09/09 00:14:45;;;;;;;;;;;14.00;99.90;;;;;;5068351;28;20057;-75
2022/09/09 00:17:18;;;;;;;;;;;14.00;99.90;;;;;;5060757;28;19966;-76
2022/09/09 00:19:53;;;;;;;;;;;14.10;99.90;;;;;;5082759;28;19924;-76
2022/09/09 00:22:20;;;;;;;;;;;14.10;99.90;;;;;;5072351;28;19924;-75
2022/09/09 00:25:10;;;;;;;;;;;14.10;99.90;;;;;;5077440;28;19924;-75
2022/09/09 00:27:38;;;;;;;;;;;14.10;99.90;;;;;;5045862;28;20284;-75
2022/09/09 00:30:22;;;;;;;;;;;14.10;99.90;;;;;;5086326;28;20367;-75
2022/09/09 00:32:49;;;;;;;;;;;14.10;99.90;;;;;;5057226;28;19963;-76
2022/09/09 00:35:27;;;;;;;;;;;14.10;99.90;;;;;;5048788;28;20019;-75
2022/09/09 00:37:54;;;;;;;;;;;14.00;99.90;;;;;;5060452;28;19920;-75
2022/09/09 00:40:32;;;;;;;;;;;14.00;99.90;;;;;;5059158;28;20273;-76
2022/09/09 00:43:16;;;;;;;;;;;14.00;99.90;;;;;;5045008;28;20395;-76
2022/09/09 00:45:42;;;;;;;;;;;14.00;99.90;;;;;;5062535;28;20384;-75
2022/09/09 00:48:10;;;;;;;;;;;14.00;99.90;;;;;;5069404;28;19920;-75
2022/09/09 00:50:55;;;;;;;;;;;14.00;99.90;;;;;;5076641;28;19917;-75
2022/09/09 00:53:29;;;;;;;;;;;13.90;99.90;;;;;;5068002;28;19920;-75
2022/09/09 00:56:16;;;;;;;;;;;13.90;99.90;;;;;;5068118;28;19920;-75
2022/09/09 00:58:50;;;;;;;;;;;13.90;99.90;;;;;;5076552;28;19920;-75
2022/09/09 01:01:15;;;;;;;;;;;13.80;99.90;;;;;;5092417;28;19930;-75
2022/09/09 01:03:45;;;;;;;;;;;14.00;99.90;;;;;;5075063;28;20018;-75
2022/09/09 01:06:19;;;;;;;;;;;13.80;99.90;;;;;;5093639;28;19971;-75
2022/09/09 01:09:15;;;;;;;;;;;13.80;99.90;;;;;;5075286;28;19966;-76
2022/09/09 01:11:41;;;;;;;;;;;13.80;99.90;;;;;;5052564;28;19924;-76
2022/09/09 01:14:25;;;;;;;;;;;13.80;99.90;;;;;;5093497;28;19924;-76
2022/09/09 01:16:52;;;;;;;;;;;13.70;99.90;;;;;;5058348;28;19947;-76
2022/09/09 01:19:27;;;;;;;;;;;13.70;99.90;;;;;;5054727;28;19924;-76
2022/09/09 01:22:06;;;;;;;;;;;13.70;99.90;;;;;;5054725;28;20331;-76
2022/09/09 01:24:39;;;;;;;;;;;13.70;99.90;;;;;;5055575;28;19920;-76
2022/09/09 01:27:05;;;;;;;;;;;13.70;99.90;;;;;;5055526;28;19973;-75
2022/09/09 01:29:31;;;;;;;;;;;13.70;99.90;;;;;;5072715;28;19920;-75
2022/09/09 01:31:58;;;;;;;;;;;13.70;99.90;;;;;;5055487;28;19924;-75
2022/09/09 01:34:25;;;;;;;;;;;13.70;99.90;;;;;;5055258;28;19920;-76
2022/09/09 01:37:05;;;;;;;;;;;13.80;99.90;;;;;;5054417;28;19920;-76
2022/09/09 01:39:32;;;;;;;;;;;13.70;99.90;;;;;;5072832;28;19982;-75
2022/09/09 01:41:57;;;;;;;;;;;13.70;99.90;;;;;;5054889;28;19924;-76
2022/09/09 01:44:24;;;;;;;;;;;13.60;99.90;;;;;;5054937;28;19970;-76
2022/09/09 01:46:52;;;;;;;;;;;13.70;99.90;;;;;;5087727;28;19962;-76
2022/09/09 01:49:18;;;;;;;;;;;13.60;99.90;;;;;;5074976;28;19946;-76
2022/09/09 01:51:46;;;;;;;;;;;13.70;99.90;;;;;;5074607;28;20299;-75
2022/09/09 01:54:11;;;;;;;;;;;13.60;99.90;;;;;;5092835;28;20325;-76
2022/09/09 01:56:37;;;;;;;;;;;13.50;99.90;;;;;;5093528;28;20007;-76
2022/09/09 01:59:14;;;;;;;;;;;13.50;99.90;;;;;;5092603;28;19920;-75
2022/09/09 02:02:00;;;;;;;;;;;13.50;99.90;;;;;;5073007;28;19924;-76
2022/09/09 02:04:29;;;;;;;;;;;13.50;99.90;;;;;;5081098;28;19920;-76
2022/09/09 02:06:56;;;;;;;;;;;13.50;99.90;;;;;;5092663;28;19974;-76
2022/09/09 02:09:26;;;;;;;;;;;13.50;99.90;;;;;;5093309;28;19920;-76
2022/09/09 02:12:13;;;;;;;;;;;13.60;99.90;;;;;;5074196;28;19920;-76
2022/09/09 02:14:41;;;;;;;;;;;13.60;99.90;;;;;;5074567;28;19920;-76
2022/09/09 02:17:11;;;;;;;;;;;13.60;99.90;;;;;;5074781;28;19924;-76
2022/09/09 02:19:38;;;;;;;;;;;13.60;99.90;;;;;;5054094;28;19920;-76
2022/09/09 02:22:05;;;;;;;;;;;13.60;99.90;;;;;;5053951;28;20332;-76
2022/09/09 02:24:33;;;;;;;;;;;13.60;99.90;;;;;;5054668;28;19920;-76
2022/09/09 02:27:00;;;;;;;;;;;13.50;99.90;;;;;;5071842;28;19920;-76
2022/09/09 02:29:27;;;;;;;;;;;13.50;99.90;;;;;;5072541;28;19920;-76
2022/09/09 02:31:54;;;;;;;;;;;13.50;99.90;;;;;;5055278;28;19921;-76
2022/09/09 02:34:21;;;;;;;;;;;13.50;99.90;;;;;;5074611;28;20387;-76
2022/09/09 02:36:48;;;;;;;;;;;13.40;99.90;;;;;;5076394;28;19930;-76
2022/09/09 02:39:14;;;;;;;;;;;13.40;99.90;;;;;;5075926;28;20035;-76
2022/09/09 02:41:40;;;;;;;;;;;13.40;99.90;;;;;;5076197;28;20040;-76
2022/09/09 02:44:10;;;;;;;;;;;13.40;99.90;;;;;;5058155;28;20360;-76
2022/09/09 02:46:44;;;;;;;;;;;13.40;99.90;;;;;;5055567;28;20391;-76
2022/09/09 02:49:32;;;;;;;;;;;13.40;99.90;;;;;;5054808;28;19925;-76
2022/09/09 02:52:02;;;;;;;;;;;13.40;99.90;;;;;;5055873;28;20155;-75
2022/09/09 02:54:31;;;;;;;;;;;13.40;99.90;;;;;;5055755;28;19925;-75
2022/09/09 02:57:01;;;;;;;;;;;13.40;99.90;;;;;;5058044;28;19975;-76
2022/09/09 02:59:27;;;;;;;;;;;13.40;99.90;;;;;;5058174;28;19930;-76
2022/09/09 03:01:53;;;;;;;;;;;13.40;99.90;;;;;;5071145;28;19920;-76
2022/09/09 03:04:18;;;;;;;;;;;13.50;99.90;;;;;;5077709;28;19920;-76
2022/09/09 03:06:44;;;;;;;;;;;13.50;99.90;;;;;;5096478;28;20022;-76
2022/09/09 03:09:10;;;;;;;;;;;13.40;99.90;;;;;;5095480;28;19928;-75
2022/09/09 03:11:36;;;;;;;;;;;13.40;99.90;;;;;;5077926;28;19920;-75
2022/09/09 03:14:02;;;;;;;;;;;13.40;99.90;;;;;;5077473;28;19916;-76
2022/09/09 03:16:27;;;;;;;;;;;13.40;99.90;;;;;;5075559;28;19926;-75
2022/09/09 03:18:53;;;;;;;;;;;13.40;99.90;;;;;;5095726;28;19920;-76
2022/09/09 03:21:18;;;;;;;;;;;13.40;99.90;;;;;;5077373;28;19920;-76
2022/09/09 03:23:44;;;;;;;;;;;13.40;99.90;;;;;;5077429;28;19924;-76
2022/09/09 03:26:10;;;;;;;;;;;13.40;99.90;;;;;;5077339;28;19924;-76
2022/09/09 03:28:36;;;;;;;;;;;13.50;99.90;;;;;;5077286;28;20050;-76
2022/09/09 03:31:02;;;;;;;;;;;13.40;99.90;;;;;;5075278;28;20007;-79
2022/09/09 03:33:29;;;;;;;;;;;13.40;99.90;;;;;;5077797;28;19971;-80
2022/09/09 03:35:56;;;;;;;;;;;13.60;99.90;;;;;;5076774;28;19924;-78
2022/09/09 03:38:23;;;;;;;;;;;13.60;99.90;;;;;;5095851;28;19924;-78
2022/09/09 03:40:55;;;;;;;;;;;13.60;99.90;;;;;;5077456;28;19920;-78
2022/09/09 03:43:21;;;;;;;;;;;13.60;99.90;;;;;;5076773;28;19920;-78
2022/09/09 03:45:49;;;;;;;;;;;13.70;99.90;;;;;;5087065;28;19932;-79
2022/09/09 03:48:16;;;;;;;;;;;13.70;99.90;;;;;;5076382;28;20367;-88
2022/09/09 03:50:49;;;;;;;;;;;13.80;99.90;;;;;;5075371;28;19983;-87
2022/09/09 03:53:15;;;;;;;;;;;13.90;99.90;;;;;;5057120;28;19920;-78
2022/09/09 03:55:47;;;;;;;;;;;13.90;99.90;;;;;;5058625;28;19928;-77
2022/09/09 03:58:13;;;;;;;;;;;14.00;99.90;;;;;;5056693;28;19916;-77
2022/09/09 04:00:44;;;;;;;;;;;14.10;99.90;;;;;;5075024;28;19924;-79
2022/09/09 04:03:10;;;;;;;;;;;14.10;99.90;;;;;;5056663;28;20401;-79
2022/09/09 04:05:39;;;;;;;;;;;14.10;99.90;;;;;;5056894;28;19920;-79
2022/09/09 04:08:05;;;;;;;;;;;14.00;99.90;;;;;;5056679;28;19927;-78
2022/09/09 04:10:31;;;;;;;;;;;14.00;99.90;;;;;;5057398;28;20391;-78
2022/09/09 04:12:56;;;;;;;;;;;14.00;99.90;;;;;;5087038;28;19923;-78
2022/09/09 04:15:22;;;;;;;;;;;13.90;99.90;;;;;;5095220;28;19931;-79
2022/09/09 04:17:47;;;;;;;;;;;13.90;99.90;;;;;;5076555;28;20291;-79
2022/09/09 04:20:13;;;;;;;;;;;13.80;99.90;;;;;;5094329;28;20018;-79
2022/09/09 04:22:38;;;;;;;;;;;13.90;99.90;;;;;;5094725;28;19920;-79
2022/09/09 04:25:05;;;;;;;;;;;13.80;99.90;;;;;;5094394;28;20379;-80
2022/09/09 04:27:31;;;;;;;;;;;13.70;99.90;;;;;;5059960;28;20628;-78
2022/09/09 04:29:57;;;;;;;;;;;13.70;99.90;;;;;;5056504;28;19924;-78
2022/09/09 04:32:23;;;;;;;;;;;13.60;99.90;;;;;;5056300;28;19950;-79
2022/09/09 04:34:48;;;;;;;;;;;13.60;99.90;;;;;;5074569;28;20403;-79
2022/09/09 04:37:14;;;;;;;;;;;13.70;99.90;;;;;;5074487;28;19916;-79
2022/09/09 04:39:40;;;;;;;;;;;13.60;99.90;;;;;;5055714;28;20443;-79
2022/09/09 04:42:05;;;;;;;;;;;13.60;99.90;;;;;;5056840;28;20023;-80
2022/09/09 04:44:31;;;;;;;;;;;13.60;99.90;;;;;;5056281;28;19920;-79
2022/09/09 04:46:56;;;;;;;;;;;13.60;99.90;;;;;;5055896;28;20028;-80
2022/09/09 04:49:22;;;;;;;;;;;13.60;99.90;;;;;;5055947;28;19943;-79
2022/09/09 04:51:51;;;;;;;;;;;13.60;99.90;;;;;;5056522;28;19974;-79
2022/09/09 04:54:17;;;;;;;;;;;13.70;99.90;;;;;;5054707;28;20477;-78
2022/09/09 04:56:43;;;;;;;;;;;13.70;99.90;;;;;;5064723;28;20006;-80
2022/09/09 04:59:09;;;;;;;;;;;13.80;99.90;;;;;;5075946;28;19920;-80
2022/09/09 05:01:35;;;;;;;;;;;13.80;99.90;;;;;;5075522;28;19920;-79
2022/09/09 05:04:02;;;;;;;;;;;13.80;99.90;;;;;;5075705;28;19927;-79
2022/09/09 05:06:29;;;;;;;;;;;13.90;99.90;;;;;;5094100;28;20380;-79
2022/09/09 05:08:55;;;;;;;;;;;14.10;99.90;;;;;;5091069;28;20010;-80
2022/09/09 05:11:22;;;;;;;;;;;13.80;99.90;;;;;;5093645;28;19963;-80
2022/09/09 05:13:49;;;;;;;;;;;13.80;99.90;;;;;;5076028;28;20018;-78
2022/09/09 05:16:15;;;;;;;;;;;13.80;99.90;;;;;;5083913;28;19929;-78
2022/09/09 05:18:42;;;;;;;;;;;13.90;99.90;;;;;;5055459;28;19920;-78
2022/09/09 05:21:09;;;;;;;;;;;13.90;99.90;;;;;;5054805;28;19921;-78
2022/09/09 05:23:35;;;;;;;;;;;14.00;99.90;;;;;;5062558;28;19927;-78
2022/09/09 05:26:02;;;;;;;;;;;15.00;99.90;;;;;;5066285;28;19920;-78
2022/09/09 05:28:29;;;;;;;;;;;14.00;99.90;;;;;;5078716;28;19924;-78
2022/09/09 05:30:58;;;;;;;;;;;13.90;99.90;;;;;;5054807;28;19921;-79
2022/09/09 05:33:25;;;;;;;;;;;14.00;99.90;;;;;;5073257;28;19975;-79
2022/09/09 05:35:57;;;;;;;;;;;14.10;99.90;;;;;;5072522;28;19970;-78
2022/09/09 05:38:25;;;;;;;;;;;14.00;99.90;;;;;;5072952;28;19931;-73
2022/09/09 05:40:52;;;;;;;;;;;14.00;99.90;;;;;;5054781;28;19920;-72
2022/09/09 05:43:18;;;;;;;;;;;14.00;99.90;;;;;;5054715;28;20330;-75
2022/09/09 05:45:43;;;;;;;;;;;14.10;99.90;;;;;;5054832;28;19962;-73
2022/09/09 05:48:09;;;;;;;;;;;14.10;99.90;;;;;;5073452;28;20405;-72
2022/09/09 05:50:34;;;;;;;;;;;14.10;99.90;;;;;;5054645;28;19950;-72
2022/09/09 05:53:00;;;;;;;;;;;14.10;99.90;;;;;;5058024;28;19920;-71
2022/09/09 05:55:25;;;;;;;;;;;14.10;99.90;;;;;;5075145;28;19920;-79
2022/09/09 05:57:51;;;;;;;;;;;14.20;99.90;;;;;;5073060;28;19920;-80
2022/09/09 06:00:20;;;;;;;;;;;14.20;99.90;;;;;;5090856;28;20449;-70
2022/09/09 06:02:50;;;;;;;;;;;14.10;99.90;;;;;;5091913;28;19972;-77
2022/09/09 06:05:16;;;;;;;;;;;14.30;99.90;;;;;;5092044;28;20015;-76
2022/09/09 06:07:43;;;;;;;;;;;14.40;99.90;;;;;;5074099;28;20397;-73
2022/09/09 06:10:09;;;;;;;;;;;14.40;99.90;;;;;;5072337;28;20382;-75
2022/09/09 06:12:34;;;;;;;;;;;14.50;99.90;;;;;;5073771;28;19924;-71
2022/09/09 06:15:00;;;;;;;;;;;13.60;99.90;;;;;;5074945;28;19973;-71
2022/09/09 06:17:25;;;;;;;;;;;14.50;99.90;;;;;;5092550;28;19916;-77
2022/09/09 06:19:52;;;;;;;;;;;14.50;99.90;;;;;;5074140;28;19924;-76
2022/09/09 06:22:17;;;;;;;;;;;14.50;99.90;;;;;;5093242;28;19924;-79
2022/09/09 06:24:44;;;;;;;;;;;14.60;99.90;;;;;;5056439;28;19974;-80
2022/09/09 06:27:10;;;;;;;;;;;14.70;99.90;;;;;;5072519;28;19924;-76
2022/09/09 06:29:36;;;;;;;;;;;14.80;99.90;;;;;;5071784;28;19927;-81
2022/09/09 06:32:02;;;;;;;;;;;14.80;99.90;;;;;;5053824;28;19973;-82
2022/09/09 06:34:28;;;;;;;;;;;14.80;99.90;;;;;;5071715;28;19920;-82
2022/09/09 06:36:53;;;;;;;;;;;14.90;99.90;;;;;;5072371;28;19926;-81
2022/09/09 06:39:19;;;;;;;;;;;14.80;99.90;;;;;;5071948;28;19970;-82
2022/09/09 06:41:44;;;;;;;;;;;15.00;99.90;;;;;;5054338;28;19977;-82
2022/09/09 06:44:13;;;;;;;;;;;14.90;99.90;;;;;;5054536;28;19921;-83
2022/09/09 06:46:39;;;;;;;;;;;14.90;99.90;;;;;;5072050;28;19981;-82
2022/09/09 06:49:04;;;;;;;;;;;15.00;99.90;;;;;;5072132;28;19920;-82
2022/09/09 06:51:31;;;;;;;;;;;15.00;99.90;;;;;;5055059;28;20265;-83
2022/09/09 06:53:58;;;;;;;;;;;15.00;99.90;;;;;;5051080;28;19924;-83
2022/09/09 06:56:28;;;;;;;;;;;15.10;99.90;;;;;;5067617;28;19925;-82
2022/09/09 06:58:54;;;;;;;;;;;15.10;99.90;;;;;;5068632;28;19974;-83
2022/09/09 07:01:24;;;;;;;;;;;15.10;99.90;;;;;;5044217;28;20012;-83
2022/09/09 07:03:50;;;;;;;;;;;15.10;99.90;;;;;;5051404;28;20026;-83
2022/09/09 07:06:18;;;;;;;;;;;15.10;99.90;;;;;;5048489;28;19974;-83
2022/09/09 07:08:43;;;;;;;;;;;15.10;99.90;;;;;;5041541;28;19924;-83
2022/09/09 07:11:09;;;;;;;;;;;15.20;99.90;;;;;;5044850;28;20615;-83
2022/09/09 07:13:35;;;;;;;;;;;15.30;99.90;;;;;;5048099;28;19920;-83
2022/09/09 07:16:07;;;;;;;;;;;15.30;99.90;;;;;;5070277;28;20366;-83
2022/09/09 07:18:33;;;;;;;;;;;15.30;99.90;;;;;;5055534;28;19971;-83
2022/09/09 07:20:58;;;;;;;;;;;15.30;99.90;;;;;;5047315;28;19967;-83
2022/09/09 07:23:24;;;;;;;;;;;15.40;99.90;;;;;;5069167;28;19920;-83
2022/09/09 07:25:51;;;;;;;;;;;15.50;99.90;;;;;;5057019;28;19924;-84
2022/09/09 07:28:17;;;;;;;;;;;15.50;99.90;;;;;;5056961;28;20327;-85
2022/09/09 07:30:42;;;;;;;;;;;15.80;99.90;;;;;;5057215;28;19920;-83
2022/09/09 07:33:09;;;;;;;;;;;16.30;99.90;;;;;;5056666;28;19920;-85
2022/09/09 07:35:36;;;;;;;;;;;16.70;99.90;;;;;;5074066;28;20487;-84
2022/09/09 07:38:06;;;;;;;;;;;17.00;99.90;;;;;;5055005;28;19928;-84
2022/09/09 07:40:33;;;;;;;;;;;17.10;99.90;;;;;;5076644;28;19920;-85
2022/09/09 07:42:59;;;;;;;;;;;17.30;99.90;;;;;;5074731;28;19920;-85
2022/09/09 07:45:28;;;;;;;;;;;17.60;99.90;;;;;;5057146;28;20291;-85
2022/09/09 07:47:56;;;;;;;;;;;17.80;99.90;;;;;;5057036;28;20372;-84
2022/09/09 07:50:22;;;;;;;;;;;17.80;99.90;;;;;;5057026;28;19954;-84
2022/09/09 07:52:48;;;;;;;;;;;17.70;99.90;;;;;;5058903;28;19939;-85
2022/09/09 07:55:14;;;;;;;;;;;18.10;99.90;;;;;;5089707;28;20338;-85
2022/09/09 07:57:40;;;;;;;;;;;18.50;99.90;;;;;;5066491;28;19927;-86
2022/09/09 08:00:06;;;;;;;;;;;18.50;99.90;;;;;;5044113;28;19920;-85
2022/09/09 08:02:31;;;;;;;;;;;18.50;99.90;;;;;;5046940;28;20003;-87
2022/09/09 08:04:57;;;;;;;;;;;19.00;99.90;;;;;;5069739;28;19928;-83
2022/09/09 08:07:23;;;;;;;;;;;19.70;99.90;;;;;;5040377;28;19928;-81
2022/09/09 08:09:49;;;;;;;;;;;20.20;99.90;;;;;;5050681;28;19920;-76
2022/09/09 08:12:14;;;;;;;;;;;20.20;99.90;;;;;;5069303;28;20007;-80
2022/09/09 08:14:43;;;;;;;;;;;20.10;99.90;;;;;;5067733;28;19978;-78
2022/09/09 08:17:08;;;;;;;;;;;20.70;99.90;;;;;;5047312;28;19971;-73
2022/09/09 08:19:35;;;;;;;;;;;20.10;99.90;;;;;;5039564;28;19920;-77
2022/09/09 08:22:08;;;;;;;;;;;20.10;99.90;;;;;;5064023;28;19979;-75
2022/09/09 08:24:34;;;;;;;;;;;20.10;99.90;;;;;;5066114;28;20007;-78
2022/09/09 08:26:59;;;;;;;;;;;19.90;99.90;;;;;;5066640;28;20015;-73
2022/09/09 08:29:25;;;;;;;;;;;19.60;99.90;;;;;;5041640;28;19928;-79
2022/09/09 08:31:57;;;;;;;;;;;19.40;99.90;;;;;;5047090;28;19966;-79
2022/09/09 08:34:24;;;;;;;;;;;19.10;99.90;;;;;;5042061;28;19928;-79
2022/09/09 08:36:50;;;;;;;;;;;19.10;99.90;;;;;;5047304;28;19974;-79
2022/09/09 08:39:16;;;;;;;;;;;18.90;99.90;;;;;;5067334;28;19921;-79
2022/09/09 08:42:01;;;;;;;;;;;19.10;99.90;;;;;;5063096;28;20024;-78
2022/09/09 08:44:38;;;;;;;;;;;19.20;99.90;;;;;;5050159;28;20360;-79
2022/09/09 08:47:29;;;;;;;;;;;19.20;99.90;;;;;;5045065;28;19970;-79
2022/09/09 08:50:19;;;;;;;;;;;18.90;99.90;;;;;;5048981;28;19951;-79
2022/09/09 08:52:50;;;;;;;;;;;19.50;99.90;;;;;;5040195;28;19924;-79
2022/09/09 08:55:22;;;;;;;;;;;19.60;99.90;;;;;;5045741;28;19920;-78
2022/09/09 08:57:52;;;;;;;;;;;19.80;99.90;;;;;;5047947;28;19955;-79
2022/09/09 09:00:18;;;;;;;;;;;19.80;99.90;;;;;;5041889;28;19929;-78
2022/09/09 09:03:02;;;;;;;;;;;19.60;99.90;;;;;;5045205;28;20292;-79
2022/09/09 09:05:57;;;;;;;;;;;19.20;99.90;;;;;;5049257;28;20376;-78
2022/09/09 09:08:30;;;;;;;;;;;19.10;99.90;;;;;;4963795;28;19930;-78
2022/09/09 09:10:57;;;;;;;;;;;19.20;99.90;;;;;;5044442;28;19920;-79
2022/09/09 09:13:41;;;;;;;;;;;19.30;99.90;;;;;;5065099;28;20457;-78
2022/09/09 09:16:13;;;;;;;;;;;18.90;99.90;;;;;;5043180;28;19928;-78
2022/09/09 09:18:39;;;;;;;;;;;18.90;99.90;;;;;;5060485;28;19955;-79
2022/09/09 09:21:18;;;;;;;;;;;18.80;99.90;;;;;;5056009;28;19960;-77
2022/09/09 09:26:42;;;;;;;;;;;18.40;99.90;;;;;;5035815;28;19934;-78
2022/09/09 09:29:14;;;;;;;;;;;18.40;99.90;;;;;;5041777;28;20007;-78
2022/09/09 09:31:48;;;;;;;;;;;18.40;99.90;;;;;;5069578;28;19925;-78
2022/09/09 09:34:14;;;;;;;;;;;18.40;99.90;;;;;;5043095;28;20253;-75
2022/09/09 09:36:52;;;;;;;;;;;18.70;99.90;;;;;;5073030;28;19927;-79
2022/09/09 09:39:28;;;;;;;;;;;18.80;99.90;;;;;;5048105;28;19924;-77
2022/09/09 09:41:54;;;;;;;;;;;18.80;99.90;;;;;;5062888;28;20426;-75
2022/09/09 09:44:27;;;;;;;;;;;18.80;99.90;;;;;;5063348;28;20373;-73
2022/09/09 09:46:53;;;;;;;;;;;18.80;99.90;;;;;;5065775;28;19921;-71
2022/09/09 09:49:18;;;;;;;;;;;18.80;99.90;;;;;;5064438;28;19935;-72
2022/09/09 09:51:44;;;;;;;;;;;18.80;99.90;;;;;;5040946;28;19925;-74
2022/09/09 09:54:13;;;;;;;;;;;18.70;99.90;;;;;;5059461;28;20300;-73
2022/09/09 09:56:40;;;;;;;;;;;18.90;99.90;;;;;;5059249;28;19921;-75
2022/09/09 09:59:05;;;;;;;;;;;18.90;99.90;;;;;;5051337;28;19927;-73
2022/09/09 10:01:33;;;;;;;;;;;19.00;99.90;;;;;;5041927;28;19920;-74
2022/09/09 10:04:03;;;;;;;;;;;19.00;99.90;;;;;;5041757;28;20352;-75
2022/09/09 10:06:36;;;;;;;;;;;19.50;99.90;;;;;;5043503;28;19963;-74
2022/09/09 10:09:04;;;;;;;;;;;19.70;99.90;;;;;;5058549;28;20487;-71
2022/09/09 10:11:35;;;;;;;;;;;20.30;99.90;;;;;;5043289;28;20367;-75
2022/09/09 10:14:07;;;;;;;;;;;20.20;99.90;;;;;;5046540;28;19920;-71
2022/09/09 10:16:52;;;;;;;;;;;20.10;99.90;;;;;;5061540;28;19920;-72
2022/09/09 10:19:37;;;;;;;;;;;20.00;99.90;;;;;;5046879;28;20019;-74
2022/09/09 10:22:21;;;;;;;;;;;20.60;99.90;;;;;;5066680;28;19978;-77
2022/09/09 10:24:57;;;;;;;;;;;21.70;99.90;;;;;;5048237;28;20326;-77
2022/09/09 10:27:28;;;;;;;;;;;22.60;99.90;;;;;;5047086;28;19924;-79
2022/09/09 10:30:13;;;;;;;;;;;22.70;99.90;;;;;;5046272;28;19927;-77
2022/09/09 10:32:41;;;;;;;;;;;22.20;99.90;;;;;;5040834;28;19920;-77
2022/09/09 10:35:07;;;;;;;;;;;21.50;99.90;;;;;;5043153;28;19920;-77
2022/09/09 10:37:49;;;;;;;;;;;21.00;99.90;;;;;;5043854;28;19920;-77
2022/09/09 10:40:21;;;;;;;;;;;20.80;99.90;;;;;;5040682;28;19948;-75
2022/09/09 10:42:46;;;;;;;;;;;21.10;99.90;;;;;;5067522;28;20322;-77
2022/09/09 10:45:18;;;;;;;;;;;22.00;99.90;;;;;;5042456;28;19920;-78
2022/09/09 10:47:56;;;;;;;;;;;22.30;99.90;;;;;;5054869;28;19920;-76
2022/09/09 10:50:39;;;;;;;;;;;22.30;99.90;;;;;;5047347;28;19987;-76
2022/09/09 10:53:14;;;;;;;;;;;22.30;99.90;;;;;;5063675;28;19986;-74
2022/09/09 10:55:41;;;;;;;;;;;21.90;99.90;;;;;;5067236;28;20011;-75
2022/09/09 10:58:11;;;;;;;;;;;21.70;99.90;;;;;;5066966;28;19967;-75
2022/09/09 11:00:36;;;;;;;;;;;22.10;99.90;;;;;;5049724;28;20003;-75
2022/09/09 11:03:02;;;;;;;;;;;22.50;99.90;;;;;;5066761;28;20011;-74
2022/09/09 11:05:35;;;;;;;;;;;22.90;99.90;;;;;;5043367;28;19935;-75
2022/09/09 11:08:04;;;;;;;;;;;23.00;99.90;;;;;;5041637;28;20308;-77
2022/09/09 11:10:48;;;;;;;;;;;23.40;99.90;;;;;;5049581;28;19928;-74
2022/09/09 11:13:20;;;;;;;;;;;23.40;98.90;;;;;;5047781;28;19946;-72
2022/09/09 11:15:49;;;;;;;;;;;23.10;99.10;;;;;;5062655;28;20051;-73
2022/09/09 11:18:19;;;;;;;;;;;22.70;99.90;;;;;;5065275;28;20018;-74
2022/09/09 11:20:47;;;;;;;;;;;22.30;99.90;;;;;;5061959;28;20047;-74
2022/09/09 11:23:22;;;;;;;;;;;21.70;99.90;;;;;;5062986;28;20031;-76
2022/09/09 11:25:51;;;;;;;;;;;21.30;99.90;;;;;;5049906;28;19935;-75
2022/09/09 11:28:36;;;;;;;;;;;21.00;99.90;;;;;;5046705;28;20055;-74
2022/09/09 11:31:01;;;;;;;;;;;20.60;99.90;;;;;;5049623;28;19924;-71
2022/09/09 11:33:51;;;;;;;;;;;20.30;99.90;;;;;;5063710;28;19939;-72
2022/09/09 11:36:22;;;;;;;;;;;20.10;99.90;;;;;;5071321;28;19935;-72
2022/09/09 11:38:52;;;;;;;;;;;20.20;99.90;;;;;;5049407;28;19950;-72
2022/09/09 11:41:20;;;;;;;;;;;20.30;99.90;;;;;;5051707;28;19969;-74
2022/09/09 11:43:47;;;;;;;;;;;21.20;99.90;;;;;;5041350;28;20038;-74
2022/09/09 11:46:15;;;;;;;;;;;21.90;99.90;;;;;;5049439;28;19928;-73
2022/09/09 11:48:45;;;;;;;;;;;22.10;99.90;;;;;;5051301;28;19928;-71
2022/09/09 11:51:17;;;;;;;;;;;22.70;99.90;;;;;;5047453;28;19928;-74
2022/09/09 11:53:53;;;;;;;;;;;23.50;99.70;;;;;;5050651;28;20305;-70
2022/09/09 11:56:37;;;;;;;;;;;23.60;99.60;;;;;;5043380;28;19927;-71
2022/09/09 11:59:05;;;;;;;;;;;23.50;98.80;;;;;;5050522;28;19928;-73
2022/09/09 12:01:35;;;;;;;;;;;23.30;98.90;;;;;;5045832;28;19921;-74
2022/09/09 12:04:07;;;;;;;;;;;23.80;98.90;;;;;;5045287;28;20015;-73
2022/09/09 12:06:33;;;;;;;;;;;24.00;98.00;;;;;;5073565;28;19921;-72
2022/09/09 12:09:25;;;;;;;;;;;23.60;97.90;;;;;;5066343;28;19924;-72
2022/09/09 12:12:09;;;;;;;;;;;22.80;98.70;;;;;;5068162;28;20007;-71
2022/09/09 12:14:43;;;;;;;;;;;22.00;99.30;;;;;;5055158;28;19927;-72
2022/09/09 12:17:19;;;;;;;;;;;21.60;99.90;;;;;;5072935;28;20290;-72
2022/09/09 12:19:45;;;;;;;;;;;21.20;99.90;;;;;;5069664;28;19927;-71
2022/09/09 12:22:31;;;;;;;;;;;21.00;99.90;;;;;;5052005;28;20370;-74
2022/09/09 12:25:20;;;;;;;;;;;20.70;99.90;;;;;;5068863;28;19920;-73
2022/09/09 12:28:00;;;;;;;;;;;20.50;99.90;;;;;;5042184;28;19920;-72
2022/09/09 12:30:29;;;;;;;;;;;20.10;99.90;;;;;;5050385;28;19960;-73
2022/09/09 12:33:02;;;;;;;;;;;20.10;99.90;;;;;;5047229;28;19936;-74
2022/09/09 12:35:28;;;;;;;;;;;20.50;99.90;;;;;;5052710;28;19931;-73
2022/09/09 12:37:56;;;;;;;;;;;20.70;99.90;;;;;;5071391;28;19942;-73
2022/09/09 12:40:25;;;;;;;;;;;20.70;99.90;;;;;;5052787;28;20356;-73
2022/09/09 12:42:58;;;;;;;;;;;20.60;99.90;;;;;;5046792;28;19956;-72
2022/09/09 12:45:25;;;;;;;;;;;20.70;99.90;;;;;;5047135;28;20378;-72
2022/09/09 12:47:53;;;;;;;;;;;20.70;99.90;;;;;;5069597;28;19927;-71
2022/09/09 12:50:27;;;;;;;;;;;20.70;99.90;;;;;;5059570;28;20328;-74
2022/09/09 12:52:54;;;;;;;;;;;20.80;99.90;;;;;;5047059;28;19920;-72
2022/09/09 12:55:24;;;;;;;;;;;21.30;99.90;;;;;;5067699;28;19921;-70
2022/09/09 12:57:51;;;;;;;;;;;21.70;99.90;;;;;;5047562;28;20019;-71
2022/09/09 13:00:23;;;;;;;;;;;21.90;99.90;;;;;;5054008;28;20283;-70
2022/09/09 13:02:51;;;;;;;;;;;21.60;99.90;;;;;;5054229;28;19935;-72
2022/09/09 13:05:22;;;;;;;;;;;21.80;99.90;;;;;;5045063;28;19924;-78
2022/09/09 13:07:50;;;;;;;;;;;22.10;99.90;;;;;;5046386;28;19978;-73
2022/09/09 13:10:21;;;;;;;;;;;22.00;99.90;;;;;;5043885;28;20357;-74
2022/09/09 13:12:49;;;;;;;;;;;21.80;99.90;;;;;;5035594;28;19920;-72
2022/09/09 13:15:24;;;;;;;;;;;22.10;99.90;;;;;;5046559;28;19925;-72
2022/09/09 13:17:51;;;;;;;;;;;21.40;99.90;;;;;;5041952;28;20052;-71
2022/09/09 13:20:24;;;;;;;;;;;21.10;99.90;;;;;;5065568;28;19920;-71
2022/09/09 13:22:52;;;;;;;;;;;20.90;99.90;;;;;;5044285;28;20022;-71
2022/09/09 13:25:26;;;;;;;;;;;20.60;99.90;;;;;;5048164;28;19935;-70
2022/09/09 13:27:55;;;;;;;;;;;20.60;99.90;;;;;;5057960;28;19927;-74
2022/09/09 13:30:25;;;;;;;;;;;20.30;99.90;;;;;;5048173;28;19943;-70
2022/09/09 13:33:06;;;;;;;;;;;20.40;99.90;;;;;;5049644;28;20080;-73
2022/09/09 13:35:35;;;;;;;;;;;20.40;99.90;;;;;;5041582;28;19924;-72
2022/09/09 13:38:09;;;;;;;;;;;21.50;99.90;;;;;;5043982;28;19947;-70
2022/09/09 13:40:37;;;;;;;;;;;20.70;99.90;;;;;;5039205;28;19975;-73
2022/09/09 13:43:03;;;;;;;;;;;20.80;99.90;;;;;;5046691;28;19924;-74
2022/09/09 13:45:29;;;;;;;;;;;20.30;99.90;;;;;;5048115;28;19928;-73
2022/09/09 13:47:55;;;;;;;;;;;20.20;99.90;;;;;;5044450;28;20486;-75
2022/09/09 13:50:21;;;;;;;;;;;20.10;99.90;;;;;;5065698;28;19935;-74
2022/09/09 13:52:48;;;;;;;;;;;20.10;99.90;;;;;;5065703;28;20372;-72
2022/09/09 13:55:14;;;;;;;;;;;20.10;99.90;;;;;;5063188;28;20294;-74
2022/09/09 13:57:50;;;;;;;;;;;20.10;99.90;;;;;;5062936;28;19928;-77
2022/09/09 14:00:16;;;;;;;;;;;20.20;99.90;;;;;;5067672;28;19920;-76
2022/09/09 14:02:41;;;;;;;;;;;20.40;99.90;;;;;;5059034;28;19951;-74
2022/09/09 14:05:06;;;;;;;;;;;20.70;99.90;;;;;;5060486;28;20372;-73
2022/09/09 14:07:32;;;;;;;;;;;20.90;99.90;;;;;;5063602;28;20585;-73
2022/09/09 14:10:01;;;;;;;;;;;21.00;99.90;;;;;;5049840;28;19944;-76
2022/09/09 14:12:26;;;;;;;;;;;21.00;99.90;;;;;;5043860;28;19920;-78
2022/09/09 14:14:52;;;;;;;;;;;20.80;99.90;;;;;;5040269;28;20050;-82
2022/09/09 14:17:18;;;;;;;;;;;21.00;99.90;;;;;;5048303;28;19921;-76
2022/09/09 14:19:45;;;;;;;;;;;21.30;99.90;;;;;;5066014;28;19932;-77
2022/09/09 14:22:14;;;;;;;;;;;21.50;99.90;;;;;;5049608;28;19991;-78
2022/09/09 14:24:42;;;;;;;;;;;21.40;99.90;;;;;;5058072;28;19941;-83
2022/09/09 14:27:11;;;;;;;;;;;21.30;99.90;;;;;;5070988;28;20443;-82
2022/09/09 14:29:36;;;;;;;;;;;21.10;99.90;;;;;;5044914;28;20007;-80
2022/09/09 14:32:02;;;;;;;;;;;20.90;99.90;;;;;;5050825;28;20351;-77
2022/09/09 14:34:27;;;;;;;;;;;20.90;99.90;;;;;;5046091;28;19978;-82